sensor_id;sensor_type;location;lat;lon;timestamp;P1;durP1;ratioP1;P2;durP2;ratioP2
74791;SDS011;63319;46.046;17.802;2024-03-17T00:02:12;33.47;;;20.50;;
74791;SDS011;63319;46.046;17.802;2024-03-17T00:05:14;34.20;;;21.05;;
74791;SDS011;63319;46.046;17.802;2024-03-17T00:08:16;33.92;;;19.48;;
74791;SDS011;63319;46.046;17.802;2024-03-17T00:11:18;32.22;;;19.15;;
74791;SDS011;63319;46.046;17.802;2024-03-17T00:14:19;33.05;;;17.77;;
74791;SDS011;63319;46.046;17.802;2024-03-17T00:17:21;29.53;;;16.80;;
74791;SDS011;63319;46.046;17.802;2024-03-17T00:20:24;35.17;;;19.35;;
74791;SDS011;63319;46.046;17.802;2024-03-17T00:23:26;31.33;;;18.08;;
74791;SDS011;63319;46.046;17.802;2024-03-17T00:26:29;30.33;;;17.17;;
74791;SDS011;63319;46.046;17.802;2024-03-17T00:29:31;27.23;;;16.25;;
74791;SDS011;63319;46.046;17.802;2024-03-17T00:32:33;28.27;;;16.35;;
74791;SDS011;63319;46.046;17.802;2024-03-17T00:35:35;28.48;;;16.02;;
74791;SDS011;63319;46.046;17.802;2024-03-17T00:38:37;27.38;;;15.45;;
74791;SDS011;63319;46.046;17.802;2024-03-17T00:41:39;29.95;;;18.05;;
74791;SDS011;63319;46.046;17.802;2024-03-17T00:44:42;26.08;;;16.35;;
74791;SDS011;63319;46.046;17.802;2024-03-17T00:47:44;25.80;;;15.27;;
74791;SDS011;63319;46.046;17.802;2024-03-17T00:50:46;24.70;;;13.55;;
74791;SDS011;63319;46.046;17.802;2024-03-17T00:53:55;18.98;;;12.23;;
74791;SDS011;63319;46.046;17.802;2024-03-17T00:56:58;19.47;;;12.40;;
74791;SDS011;63319;46.046;17.802;2024-03-17T01:00:00;18.77;;;11.55;;
74791;SDS011;63319;46.046;17.802;2024-03-17T01:03:02;18.63;;;11.63;;
74791;SDS011;63319;46.046;17.802;2024-03-17T01:06:04;19.90;;;12.05;;
74791;SDS011;63319;46.046;17.802;2024-03-17T01:09:07;17.80;;;11.32;;
74791;SDS011;63319;46.046;17.802;2024-03-17T01:12:10;19.88;;;12.93;;
74791;SDS011;63319;46.046;17.802;2024-03-17T01:15:12;17.33;;;11.05;;
74791;SDS011;63319;46.046;17.802;2024-03-17T01:18:13;16.93;;;10.53;;
74791;SDS011;63319;46.046;17.802;2024-03-17T01:21:15;19.35;;;10.75;;
74791;SDS011;63319;46.046;17.802;2024-03-17T01:24:17;19.48;;;10.02;;
74791;SDS011;63319;46.046;17.802;2024-03-17T01:27:19;20.23;;;10.43;;
74791;SDS011;63319;46.046;17.802;2024-03-17T01:30:22;19.42;;;11.00;;
74791;SDS011;63319;46.046;17.802;2024-03-17T01:33:24;19.40;;;11.73;;
74791;SDS011;63319;46.046;17.802;2024-03-17T01:36:26;20.10;;;11.43;;
74791;SDS011;63319;46.046;17.802;2024-03-17T01:39:29;19.77;;;10.93;;
74791;SDS011;63319;46.046;17.802;2024-03-17T01:42:32;17.65;;;11.02;;
74791;SDS011;63319;46.046;17.802;2024-03-17T01:45:34;17.23;;;10.85;;
74791;SDS011;63319;46.046;17.802;2024-03-17T01:48:36;17.30;;;11.03;;
74791;SDS011;63319;46.046;17.802;2024-03-17T01:51:38;17.30;;;10.10;;
74791;SDS011;63319;46.046;17.802;2024-03-17T01:54:41;17.10;;;9.80;;
74791;SDS011;63319;46.046;17.802;2024-03-17T01:57:44;16.77;;;10.33;;
74791;SDS011;63319;46.046;17.802;2024-03-17T02:00:46;15.65;;;10.27;;
74791;SDS011;63319;46.046;17.802;2024-03-17T02:03:48;17.45;;;9.70;;
74791;SDS011;63319;46.046;17.802;2024-03-17T02:06:50;18.67;;;10.80;;
74791;SDS011;63319;46.046;17.802;2024-03-17T02:09:51;15.23;;;9.93;;
74791;SDS011;63319;46.046;17.802;2024-03-17T02:12:54;18.45;;;10.75;;
74791;SDS011;63319;46.046;17.802;2024-03-17T02:15:56;17.98;;;10.10;;
74791;SDS011;63319;46.046;17.802;2024-03-17T02:18:58;20.87;;;10.97;;
74791;SDS011;63319;46.046;17.802;2024-03-17T02:22:01;19.70;;;11.07;;
74791;SDS011;63319;46.046;17.802;2024-03-17T02:25:03;15.80;;;10.57;;
74791;SDS011;63319;46.046;17.802;2024-03-17T02:28:06;16.37;;;10.60;;
74791;SDS011;63319;46.046;17.802;2024-03-17T02:31:08;19.83;;;10.43;;
74791;SDS011;63319;46.046;17.802;2024-03-17T02:34:11;17.55;;;11.30;;
74791;SDS011;63319;46.046;17.802;2024-03-17T02:37:13;17.73;;;10.23;;
74791;SDS011;63319;46.046;17.802;2024-03-17T02:40:15;19.70;;;10.73;;
74791;SDS011;63319;46.046;17.802;2024-03-17T02:43:17;16.08;;;9.80;;
74791;SDS011;63319;46.046;17.802;2024-03-17T02:46:20;16.25;;;9.93;;
74791;SDS011;63319;46.046;17.802;2024-03-17T02:49:21;12.77;;;8.80;;
74791;SDS011;63319;46.046;17.802;2024-03-17T02:52:23;13.45;;;8.02;;
74791;SDS011;63319;46.046;17.802;2024-03-17T02:55:26;12.82;;;7.45;;
74791;SDS011;63319;46.046;17.802;2024-03-17T02:58:28;13.83;;;8.43;;
74791;SDS011;63319;46.046;17.802;2024-03-17T03:01:30;13.90;;;7.13;;
74791;SDS011;63319;46.046;17.802;2024-03-17T03:04:32;15.48;;;8.85;;
74791;SDS011;63319;46.046;17.802;2024-03-17T03:07:34;15.82;;;8.38;;
74791;SDS011;63319;46.046;17.802;2024-03-17T03:10:36;17.13;;;9.77;;
74791;SDS011;63319;46.046;17.802;2024-03-17T03:13:38;18.83;;;8.68;;
74791;SDS011;63319;46.046;17.802;2024-03-17T03:16:41;14.38;;;8.52;;
74791;SDS011;63319;46.046;17.802;2024-03-17T03:19:43;16.93;;;9.17;;
74791;SDS011;63319;46.046;17.802;2024-03-17T03:22:45;17.20;;;9.63;;
74791;SDS011;63319;46.046;17.802;2024-03-17T03:25:47;13.05;;;6.53;;
74791;SDS011;63319;46.046;17.802;2024-03-17T03:28:56;11.90;;;7.13;;
74791;SDS011;63319;46.046;17.802;2024-03-17T03:31:58;12.80;;;6.60;;
74791;SDS011;63319;46.046;17.802;2024-03-17T03:34:59;12.02;;;5.80;;
74791;SDS011;63319;46.046;17.802;2024-03-17T03:38:01;12.35;;;5.93;;
74791;SDS011;63319;46.046;17.802;2024-03-17T03:41:08;12.07;;;5.57;;
74791;SDS011;63319;46.046;17.802;2024-03-17T03:44:15;11.00;;;5.40;;
74791;SDS011;63319;46.046;17.802;2024-03-17T03:47:16;9.45;;;5.35;;
74791;SDS011;63319;46.046;17.802;2024-03-17T03:50:20;8.87;;;5.00;;
74791;SDS011;63319;46.046;17.802;2024-03-17T03:53:22;8.63;;;4.53;;
74791;SDS011;63319;46.046;17.802;2024-03-17T03:56:24;9.60;;;4.60;;
74791;SDS011;63319;46.046;17.802;2024-03-17T03:59:27;10.33;;;4.47;;
74791;SDS011;63319;46.046;17.802;2024-03-17T04:02:29;8.15;;;4.30;;
74791;SDS011;63319;46.046;17.802;2024-03-17T04:05:32;9.88;;;4.45;;
74791;SDS011;63319;46.046;17.802;2024-03-17T04:08:36;6.43;;;3.60;;
74791;SDS011;63319;46.046;17.802;2024-03-17T04:11:39;7.32;;;3.40;;
74791;SDS011;63319;46.046;17.802;2024-03-17T04:14:41;7.15;;;2.92;;
74791;SDS011;63319;46.046;17.802;2024-03-17T04:17:43;9.18;;;4.38;;
74791;SDS011;63319;46.046;17.802;2024-03-17T04:20:45;8.43;;;4.10;;
74791;SDS011;63319;46.046;17.802;2024-03-17T04:23:47;7.85;;;2.90;;
74791;SDS011;63319;46.046;17.802;2024-03-17T04:26:49;5.50;;;1.77;;
74791;SDS011;63319;46.046;17.802;2024-03-17T04:29:52;4.90;;;1.80;;
74791;SDS011;63319;46.046;17.802;2024-03-17T04:32:55;4.03;;;1.58;;
74791;SDS011;63319;46.046;17.802;2024-03-17T04:35:57;5.10;;;1.75;;
74791;SDS011;63319;46.046;17.802;2024-03-17T04:38:59;3.72;;;1.40;;
74791;SDS011;63319;46.046;17.802;2024-03-17T04:42:01;1.98;;;1.10;;
74791;SDS011;63319;46.046;17.802;2024-03-17T04:45:02;3.45;;;1.30;;
74791;SDS011;63319;46.046;17.802;2024-03-17T04:48:06;2.42;;;1.00;;
74791;SDS011;63319;46.046;17.802;2024-03-17T04:51:14;4.73;;;1.40;;
74791;SDS011;63319;46.046;17.802;2024-03-17T04:54:17;3.47;;;1.40;;
74791;SDS011;63319;46.046;17.802;2024-03-17T04:57:18;3.97;;;1.30;;
74791;SDS011;63319;46.046;17.802;2024-03-17T05:00:20;3.53;;;1.37;;
74791;SDS011;63319;46.046;17.802;2024-03-17T05:03:23;2.70;;;1.40;;
74791;SDS011;63319;46.046;17.802;2024-03-17T05:06:25;3.75;;;1.50;;
74791;SDS011;63319;46.046;17.802;2024-03-17T05:09:27;6.68;;;1.42;;
74791;SDS011;63319;46.046;17.802;2024-03-17T05:12:28;3.15;;;1.30;;
74791;SDS011;63319;46.046;17.802;2024-03-17T05:15:30;2.83;;;1.10;;
74791;SDS011;63319;46.046;17.802;2024-03-17T05:18:32;2.13;;;0.93;;
74791;SDS011;63319;46.046;17.802;2024-03-17T05:21:34;3.80;;;1.30;;
74791;SDS011;63319;46.046;17.802;2024-03-17T05:24:36;2.72;;;1.02;;
74791;SDS011;63319;46.046;17.802;2024-03-17T05:27:38;5.97;;;1.20;;
74791;SDS011;63319;46.046;17.802;2024-03-17T05:30:41;2.90;;;1.40;;
74791;SDS011;63319;46.046;17.802;2024-03-17T05:33:44;4.35;;;1.38;;
74791;SDS011;63319;46.046;17.802;2024-03-17T05:36:46;3.58;;;1.40;;
74791;SDS011;63319;46.046;17.802;2024-03-17T05:39:48;2.70;;;1.20;;
74791;SDS011;63319;46.046;17.802;2024-03-17T05:42:50;3.40;;;1.65;;
74791;SDS011;63319;46.046;17.802;2024-03-17T05:45:53;3.17;;;1.23;;
74791;SDS011;63319;46.046;17.802;2024-03-17T05:48:56;3.83;;;1.42;;
74791;SDS011;63319;46.046;17.802;2024-03-17T05:51:58;4.63;;;1.47;;
74791;SDS011;63319;46.046;17.802;2024-03-17T05:55:00;6.13;;;1.30;;
74791;SDS011;63319;46.046;17.802;2024-03-17T05:58:02;3.28;;;1.40;;
74791;SDS011;63319;46.046;17.802;2024-03-17T06:01:04;4.23;;;1.90;;
74791;SDS011;63319;46.046;17.802;2024-03-17T06:04:08;5.22;;;1.92;;
74791;SDS011;63319;46.046;17.802;2024-03-17T06:07:10;5.70;;;2.15;;
74791;SDS011;63319;46.046;17.802;2024-03-17T06:10:12;4.55;;;1.80;;
74791;SDS011;63319;46.046;17.802;2024-03-17T06:13:14;4.25;;;1.83;;
74791;SDS011;63319;46.046;17.802;2024-03-17T06:16:18;3.17;;;1.40;;
74791;SDS011;63319;46.046;17.802;2024-03-17T06:19:21;3.53;;;1.30;;
74791;SDS011;63319;46.046;17.802;2024-03-17T06:22:23;4.53;;;1.17;;
74791;SDS011;63319;46.046;17.802;2024-03-17T06:25:25;3.33;;;1.38;;
74791;SDS011;63319;46.046;17.802;2024-03-17T06:28:27;3.63;;;1.40;;
74791;SDS011;63319;46.046;17.802;2024-03-17T06:31:29;2.90;;;1.37;;
74791;SDS011;63319;46.046;17.802;2024-03-17T06:34:32;2.97;;;1.35;;
74791;SDS011;63319;46.046;17.802;2024-03-17T06:37:34;6.13;;;1.42;;
74791;SDS011;63319;46.046;17.802;2024-03-17T06:40:37;5.15;;;1.70;;
74791;SDS011;63319;46.046;17.802;2024-03-17T06:43:39;2.67;;;1.60;;
74791;SDS011;63319;46.046;17.802;2024-03-17T06:46:41;3.92;;;1.60;;
74791;SDS011;63319;46.046;17.802;2024-03-17T06:49:44;8.63;;;1.65;;
74791;SDS011;63319;46.046;17.802;2024-03-17T06:52:46;6.80;;;1.70;;
74791;SDS011;63319;46.046;17.802;2024-03-17T06:55:54;3.42;;;1.90;;
74791;SDS011;63319;46.046;17.802;2024-03-17T06:59:00;3.80;;;1.70;;
74791;SDS011;63319;46.046;17.802;2024-03-17T07:02:02;3.75;;;2.08;;
74791;SDS011;63319;46.046;17.802;2024-03-17T07:05:04;3.58;;;1.70;;
74791;SDS011;63319;46.046;17.802;2024-03-17T07:08:07;3.10;;;1.40;;
74791;SDS011;63319;46.046;17.802;2024-03-17T07:11:10;3.70;;;1.88;;
74791;SDS011;63319;46.046;17.802;2024-03-17T07:14:12;3.07;;;1.67;;
74791;SDS011;63319;46.046;17.802;2024-03-17T07:17:14;4.00;;;2.10;;
74791;SDS011;63319;46.046;17.802;2024-03-17T07:20:16;6.75;;;2.90;;
74791;SDS011;63319;46.046;17.802;2024-03-17T07:23:18;4.57;;;2.40;;
74791;SDS011;63319;46.046;17.802;2024-03-17T07:26:19;4.80;;;2.00;;
74791;SDS011;63319;46.046;17.802;2024-03-17T07:29:21;4.00;;;1.80;;
74791;SDS011;63319;46.046;17.802;2024-03-17T07:32:23;3.25;;;1.60;;
74791;SDS011;63319;46.046;17.802;2024-03-17T07:35:25;4.55;;;1.90;;
74791;SDS011;63319;46.046;17.802;2024-03-17T07:38:27;4.57;;;2.30;;
74791;SDS011;63319;46.046;17.802;2024-03-17T07:41:29;3.55;;;1.90;;
74791;SDS011;63319;46.046;17.802;2024-03-17T07:44:31;3.50;;;1.90;;
74791;SDS011;63319;46.046;17.802;2024-03-17T07:47:36;7.93;;;2.65;;
74791;SDS011;63319;46.046;17.802;2024-03-17T07:50:38;5.75;;;2.25;;
74791;SDS011;63319;46.046;17.802;2024-03-17T07:53:40;5.25;;;2.35;;
74791;SDS011;63319;46.046;17.802;2024-03-17T07:56:43;5.30;;;2.85;;
74791;SDS011;63319;46.046;17.802;2024-03-17T07:59:45;5.40;;;2.60;;
74791;SDS011;63319;46.046;17.802;2024-03-17T08:02:48;5.07;;;2.50;;
74791;SDS011;63319;46.046;17.802;2024-03-17T08:05:49;4.65;;;2.30;;
74791;SDS011;63319;46.046;17.802;2024-03-17T08:08:52;6.72;;;3.15;;
74791;SDS011;63319;46.046;17.802;2024-03-17T08:11:55;5.93;;;2.97;;
74791;SDS011;63319;46.046;17.802;2024-03-17T08:14:57;4.73;;;2.53;;
74791;SDS011;63319;46.046;17.802;2024-03-17T08:18:00;6.18;;;2.85;;
74791;SDS011;63319;46.046;17.802;2024-03-17T08:21:03;5.43;;;2.33;;
74791;SDS011;63319;46.046;17.802;2024-03-17T08:24:06;5.15;;;2.30;;
74791;SDS011;63319;46.046;17.802;2024-03-17T08:27:08;6.25;;;2.50;;
74791;SDS011;63319;46.046;17.802;2024-03-17T08:30:10;6.17;;;3.53;;
74791;SDS011;63319;46.046;17.802;2024-03-17T08:33:12;5.25;;;2.78;;
74791;SDS011;63319;46.046;17.802;2024-03-17T08:36:16;6.18;;;2.78;;
74791;SDS011;63319;46.046;17.802;2024-03-17T08:39:19;6.68;;;3.00;;
74791;SDS011;63319;46.046;17.802;2024-03-17T08:42:20;5.68;;;2.78;;
74791;SDS011;63319;46.046;17.802;2024-03-17T08:45:23;5.10;;;2.20;;
74791;SDS011;63319;46.046;17.802;2024-03-17T08:48:25;7.20;;;2.33;;
74791;SDS011;63319;46.046;17.802;2024-03-17T08:51:28;7.03;;;2.58;;
74791;SDS011;63319;46.046;17.802;2024-03-17T08:54:29;5.63;;;2.08;;
74791;SDS011;63319;46.046;17.802;2024-03-17T08:57:31;4.95;;;2.25;;
74791;SDS011;63319;46.046;17.802;2024-03-17T09:00:34;7.17;;;3.40;;
74791;SDS011;63319;46.046;17.802;2024-03-17T09:03:38;5.40;;;2.10;;
74791;SDS011;63319;46.046;17.802;2024-03-17T09:06:41;5.05;;;1.98;;
74791;SDS011;63319;46.046;17.802;2024-03-17T09:09:42;4.32;;;1.48;;
74791;SDS011;63319;46.046;17.802;2024-03-17T09:12:44;5.50;;;1.50;;
74791;SDS011;63319;46.046;17.802;2024-03-17T09:18:53;4.63;;;1.55;;
74791;SDS011;63319;46.046;17.802;2024-03-17T09:21:55;4.28;;;1.67;;
74791;SDS011;63319;46.046;17.802;2024-03-17T09:24:57;4.35;;;1.83;;
74791;SDS011;63319;46.046;17.802;2024-03-17T09:27:59;4.53;;;1.30;;
74791;SDS011;63319;46.046;17.802;2024-03-17T09:31:01;4.93;;;2.00;;
74791;SDS011;63319;46.046;17.802;2024-03-17T09:34:04;6.72;;;2.00;;
74791;SDS011;63319;46.046;17.802;2024-03-17T09:37:06;4.63;;;1.80;;
74791;SDS011;63319;46.046;17.802;2024-03-17T09:40:13;5.68;;;2.08;;
74791;SDS011;63319;46.046;17.802;2024-03-17T09:43:16;4.28;;;2.00;;
74791;SDS011;63319;46.046;17.802;2024-03-17T09:46:18;3.57;;;1.30;;
74791;SDS011;63319;46.046;17.802;2024-03-17T09:49:20;4.72;;;1.40;;
74791;SDS011;63319;46.046;17.802;2024-03-17T09:52:23;4.00;;;1.70;;
74791;SDS011;63319;46.046;17.802;2024-03-17T09:55:29;4.05;;;1.55;;
74791;SDS011;63319;46.046;17.802;2024-03-17T09:58:31;5.18;;;1.63;;
74791;SDS011;63319;46.046;17.802;2024-03-17T10:01:33;4.17;;;1.40;;
74791;SDS011;63319;46.046;17.802;2024-03-17T10:04:35;2.92;;;1.30;;
74791;SDS011;63319;46.046;17.802;2024-03-17T10:07:37;4.43;;;1.80;;
74791;SDS011;63319;46.046;17.802;2024-03-17T10:10:40;7.13;;;2.90;;
74791;SDS011;63319;46.046;17.802;2024-03-17T10:13:45;3.67;;;1.50;;
74791;SDS011;63319;46.046;17.802;2024-03-17T10:16:48;8.23;;;1.50;;
74791;SDS011;63319;46.046;17.802;2024-03-17T10:19:50;3.00;;;1.50;;
74791;SDS011;63319;46.046;17.802;2024-03-17T10:23:05;4.03;;;1.48;;
74791;SDS011;63319;46.046;17.802;2024-03-17T10:26:15;5.40;;;1.10;;
74791;SDS011;63319;46.046;17.802;2024-03-17T10:29:24;3.00;;;1.40;;
74791;SDS011;63319;46.046;17.802;2024-03-17T10:32:28;7.27;;;2.30;;
74791;SDS011;63319;46.046;17.802;2024-03-17T10:35:31;6.18;;;2.30;;
74791;SDS011;63319;46.046;17.802;2024-03-17T10:38:36;3.35;;;1.70;;
74791;SDS011;63319;46.046;17.802;2024-03-17T10:41:38;8.25;;;4.68;;
74791;SDS011;63319;46.046;17.802;2024-03-17T10:44:41;6.07;;;1.85;;
74791;SDS011;63319;46.046;17.802;2024-03-17T10:47:50;3.93;;;1.27;;
74791;SDS011;63319;46.046;17.802;2024-03-17T10:50:53;5.57;;;1.30;;
74791;SDS011;63319;46.046;17.802;2024-03-17T10:53:59;4.93;;;2.03;;
74791;SDS011;63319;46.046;17.802;2024-03-17T10:57:06;5.50;;;1.80;;
74791;SDS011;63319;46.046;17.802;2024-03-17T11:00:19;4.53;;;1.63;;
74791;SDS011;63319;46.046;17.802;2024-03-17T11:03:23;4.60;;;1.73;;
74791;SDS011;63319;46.046;17.802;2024-03-17T11:06:25;5.25;;;1.60;;
74791;SDS011;63319;46.046;17.802;2024-03-17T11:09:27;5.20;;;2.00;;
74791;SDS011;63319;46.046;17.802;2024-03-17T11:15:48;6.60;;;3.10;;
74791;SDS011;63319;46.046;17.802;2024-03-17T11:18:52;3.47;;;1.60;;
74791;SDS011;63319;46.046;17.802;2024-03-17T11:21:54;8.23;;;3.25;;
74791;SDS011;63319;46.046;17.802;2024-03-17T11:25:07;8.07;;;3.90;;
74791;SDS011;63319;46.046;17.802;2024-03-17T11:31:44;5.38;;;2.67;;
74791;SDS011;63319;46.046;17.802;2024-03-17T11:34:47;6.03;;;2.10;;
74791;SDS011;63319;46.046;17.802;2024-03-17T11:37:49;3.75;;;1.70;;
74791;SDS011;63319;46.046;17.802;2024-03-17T11:41:12;3.03;;;1.35;;
74791;SDS011;63319;46.046;17.802;2024-03-17T11:44:36;6.63;;;1.45;;
74791;SDS011;63319;46.046;17.802;2024-03-17T11:47:39;3.22;;;1.63;;
74791;SDS011;63319;46.046;17.802;2024-03-17T11:50:42;5.53;;;2.37;;
74791;SDS011;63319;46.046;17.802;2024-03-17T11:53:46;3.72;;;1.80;;
74791;SDS011;63319;46.046;17.802;2024-03-17T11:57:00;5.95;;;2.28;;
74791;SDS011;63319;46.046;17.802;2024-03-17T12:00:03;6.55;;;2.10;;
74791;SDS011;63319;46.046;17.802;2024-03-17T12:03:09;6.10;;;2.30;;
74791;SDS011;63319;46.046;17.802;2024-03-17T12:06:13;3.90;;;1.93;;
74791;SDS011;63319;46.046;17.802;2024-03-17T12:09:20;5.15;;;1.60;;
74791;SDS011;63319;46.046;17.802;2024-03-17T12:12:27;6.80;;;2.40;;
74791;SDS011;63319;46.046;17.802;2024-03-17T12:15:39;9.70;;;2.08;;
74791;SDS011;63319;46.046;17.802;2024-03-17T12:18:42;3.92;;;1.60;;
74791;SDS011;63319;46.046;17.802;2024-03-17T12:21:50;3.30;;;1.60;;
74791;SDS011;63319;46.046;17.802;2024-03-17T12:24:54;3.88;;;1.60;;
74791;SDS011;63319;46.046;17.802;2024-03-17T12:27:57;5.18;;;1.55;;
74791;SDS011;63319;46.046;17.802;2024-03-17T12:30:59;3.60;;;1.50;;
74791;SDS011;63319;46.046;17.802;2024-03-17T12:34:02;6.95;;;1.50;;
74791;SDS011;63319;46.046;17.802;2024-03-17T12:37:04;3.90;;;1.30;;
74791;SDS011;63319;46.046;17.802;2024-03-17T12:40:08;5.18;;;1.50;;
74791;SDS011;63319;46.046;17.802;2024-03-17T12:43:20;14.30;;;7.43;;
74791;SDS011;63319;46.046;17.802;2024-03-17T12:46:21;6.88;;;2.17;;
74791;SDS011;63319;46.046;17.802;2024-03-17T12:49:24;5.10;;;2.20;;
74791;SDS011;63319;46.046;17.802;2024-03-17T12:52:29;4.27;;;1.53;;
74791;SDS011;63319;46.046;17.802;2024-03-17T12:55:34;19.63;;;10.05;;
74791;SDS011;63319;46.046;17.802;2024-03-17T12:59:04;8.15;;;3.38;;
74791;SDS011;63319;46.046;17.802;2024-03-17T13:02:25;8.88;;;2.72;;
74791;SDS011;63319;46.046;17.802;2024-03-17T13:05:29;11.15;;;3.45;;
74791;SDS011;63319;46.046;17.802;2024-03-17T13:08:33;16.13;;;5.67;;
74791;SDS011;63319;46.046;17.802;2024-03-17T13:11:35;9.77;;;3.40;;
74791;SDS011;63319;46.046;17.802;2024-03-17T13:14:37;7.70;;;2.45;;
74791;SDS011;63319;46.046;17.802;2024-03-17T13:17:39;4.13;;;1.80;;
74791;SDS011;63319;46.046;17.802;2024-03-17T13:20:41;4.68;;;2.00;;
74791;SDS011;63319;46.046;17.802;2024-03-17T13:23:43;4.23;;;2.13;;
74791;SDS011;63319;46.046;17.802;2024-03-17T13:26:46;2.58;;;1.27;;
74791;SDS011;63319;46.046;17.802;2024-03-17T13:29:49;5.63;;;1.98;;
74791;SDS011;63319;46.046;17.802;2024-03-17T13:32:52;5.15;;;1.48;;
74791;SDS011;63319;46.046;17.802;2024-03-17T13:35:59;4.03;;;1.38;;
74791;SDS011;63319;46.046;17.802;2024-03-17T13:39:01;6.93;;;1.73;;
74791;SDS011;63319;46.046;17.802;2024-03-17T13:42:03;5.65;;;1.58;;
74791;SDS011;63319;46.046;17.802;2024-03-17T13:45:05;4.65;;;1.30;;
74791;SDS011;63319;46.046;17.802;2024-03-17T13:48:11;5.35;;;1.73;;
74791;SDS011;63319;46.046;17.802;2024-03-17T13:51:13;5.25;;;1.70;;
74791;SDS011;63319;46.046;17.802;2024-03-17T13:54:15;4.43;;;1.30;;
74791;SDS011;63319;46.046;17.802;2024-03-17T13:57:17;5.20;;;1.80;;
74791;SDS011;63319;46.046;17.802;2024-03-17T14:00:19;4.38;;;1.70;;
74791;SDS011;63319;46.046;17.802;2024-03-17T14:03:22;5.38;;;1.60;;
74791;SDS011;63319;46.046;17.802;2024-03-17T14:06:24;7.22;;;1.52;;
74791;SDS011;63319;46.046;17.802;2024-03-17T14:09:29;7.00;;;2.27;;
74791;SDS011;63319;46.046;17.802;2024-03-17T14:12:31;7.00;;;2.03;;
74791;SDS011;63319;46.046;17.802;2024-03-17T14:15:33;7.15;;;2.00;;
74791;SDS011;63319;46.046;17.802;2024-03-17T14:18:35;9.60;;;2.13;;
74791;SDS011;63319;46.046;17.802;2024-03-17T14:21:37;8.95;;;4.35;;
74791;SDS011;63319;46.046;17.802;2024-03-17T14:24:39;11.33;;;4.57;;
74791;SDS011;63319;46.046;17.802;2024-03-17T14:27:42;14.52;;;5.53;;
74791;SDS011;63319;46.046;17.802;2024-03-17T14:30:44;6.57;;;2.28;;
74791;SDS011;63319;46.046;17.802;2024-03-17T14:33:46;11.38;;;6.40;;
74791;SDS011;63319;46.046;17.802;2024-03-17T14:36:48;11.25;;;6.10;;
74791;SDS011;63319;46.046;17.802;2024-03-17T14:39:53;7.40;;;1.53;;
74791;SDS011;63319;46.046;17.802;2024-03-17T14:42:55;5.53;;;1.70;;
74791;SDS011;63319;46.046;17.802;2024-03-17T14:45:57;4.30;;;1.48;;
74791;SDS011;63319;46.046;17.802;2024-03-17T14:48:59;5.88;;;2.65;;
74791;SDS011;63319;46.046;17.802;2024-03-17T14:52:00;6.28;;;1.88;;
74791;SDS011;63319;46.046;17.802;2024-03-17T14:55:03;4.00;;;1.53;;
74791;SDS011;63319;46.046;17.802;2024-03-17T14:58:05;5.25;;;2.53;;
74791;SDS011;63319;46.046;17.802;2024-03-17T15:01:08;3.63;;;1.50;;
74791;SDS011;63319;46.046;17.802;2024-03-17T15:04:10;3.88;;;1.27;;
74791;SDS011;63319;46.046;17.802;2024-03-17T15:07:12;7.32;;;2.60;;
74791;SDS011;63319;46.046;17.802;2024-03-17T15:10:14;6.73;;;2.47;;
74791;SDS011;63319;46.046;17.802;2024-03-17T15:13:17;5.45;;;2.40;;
74791;SDS011;63319;46.046;17.802;2024-03-17T15:16:19;8.77;;;2.38;;
74791;SDS011;63319;46.046;17.802;2024-03-17T15:19:21;6.38;;;1.75;;
74791;SDS011;63319;46.046;17.802;2024-03-17T15:22:22;6.63;;;2.40;;
74791;SDS011;63319;46.046;17.802;2024-03-17T15:25:27;7.27;;;2.57;;
74791;SDS011;63319;46.046;17.802;2024-03-17T15:28:29;13.13;;;3.08;;
74791;SDS011;63319;46.046;17.802;2024-03-17T15:31:31;16.13;;;4.55;;
74791;SDS011;63319;46.046;17.802;2024-03-17T15:34:33;15.02;;;5.43;;
74791;SDS011;63319;46.046;17.802;2024-03-17T15:37:38;17.77;;;7.00;;
74791;SDS011;63319;46.046;17.802;2024-03-17T15:40:44;8.15;;;3.25;;
74791;SDS011;63319;46.046;17.802;2024-03-17T15:43:45;10.13;;;3.30;;
74791;SDS011;63319;46.046;17.802;2024-03-17T15:46:47;8.00;;;2.85;;
74791;SDS011;63319;46.046;17.802;2024-03-17T15:49:50;9.90;;;2.30;;
74791;SDS011;63319;46.046;17.802;2024-03-17T15:52:52;6.53;;;2.57;;
74791;SDS011;63319;46.046;17.802;2024-03-17T15:56:01;6.03;;;1.90;;
74791;SDS011;63319;46.046;17.802;2024-03-17T15:59:04;8.23;;;3.53;;
74791;SDS011;63319;46.046;17.802;2024-03-17T16:02:06;8.03;;;3.43;;
74791;SDS011;63319;46.046;17.802;2024-03-17T16:05:12;6.43;;;2.50;;
74791;SDS011;63319;46.046;17.802;2024-03-17T16:08:16;6.35;;;2.35;;
74791;SDS011;63319;46.046;17.802;2024-03-17T16:11:20;6.13;;;2.15;;
74791;SDS011;63319;46.046;17.802;2024-03-17T16:14:29;6.47;;;2.20;;
74791;SDS011;63319;46.046;17.802;2024-03-17T16:17:30;4.00;;;1.60;;
74791;SDS011;63319;46.046;17.802;2024-03-17T16:27:01;15.07;;;5.20;;
74791;SDS011;63319;46.046;17.802;2024-03-17T16:30:05;14.17;;;6.67;;
74791;SDS011;63319;46.046;17.802;2024-03-17T16:33:10;17.73;;;7.82;;
74791;SDS011;63319;46.046;17.802;2024-03-17T16:36:13;15.07;;;6.75;;
74791;SDS011;63319;46.046;17.802;2024-03-17T16:39:16;15.33;;;8.00;;
74791;SDS011;63319;46.046;17.802;2024-03-17T16:42:18;18.42;;;9.43;;
74791;SDS011;63319;46.046;17.802;2024-03-17T16:45:20;15.73;;;7.53;;
74791;SDS011;63319;46.046;17.802;2024-03-17T16:48:27;15.25;;;6.68;;
74791;SDS011;63319;46.046;17.802;2024-03-17T16:51:29;15.03;;;6.17;;
74791;SDS011;63319;46.046;17.802;2024-03-17T16:54:32;17.92;;;6.63;;
74791;SDS011;63319;46.046;17.802;2024-03-17T16:57:38;20.67;;;9.27;;
74791;SDS011;63319;46.046;17.802;2024-03-17T17:00:40;23.95;;;9.68;;
74791;SDS011;63319;46.046;17.802;2024-03-17T17:03:42;26.38;;;13.38;;
74791;SDS011;63319;46.046;17.802;2024-03-17T17:06:44;34.40;;;16.77;;
74791;SDS011;63319;46.046;17.802;2024-03-17T17:09:46;26.60;;;14.07;;
74791;SDS011;63319;46.046;17.802;2024-03-17T17:12:48;22.37;;;12.00;;
74791;SDS011;63319;46.046;17.802;2024-03-17T17:15:50;23.63;;;11.85;;
74791;SDS011;63319;46.046;17.802;2024-03-17T17:18:57;29.27;;;13.35;;
74791;SDS011;63319;46.046;17.802;2024-03-17T17:22:03;28.90;;;12.85;;
74791;SDS011;63319;46.046;17.802;2024-03-17T17:25:13;24.17;;;13.10;;
74791;SDS011;63319;46.046;17.802;2024-03-17T17:28:16;22.83;;;12.05;;
74791;SDS011;63319;46.046;17.802;2024-03-17T17:31:18;24.75;;;11.98;;
74791;SDS011;63319;46.046;17.802;2024-03-17T17:34:20;20.57;;;10.53;;
74791;SDS011;63319;46.046;17.802;2024-03-17T17:37:22;26.23;;;12.13;;
74791;SDS011;63319;46.046;17.802;2024-03-17T17:40:24;39.05;;;17.90;;
74791;SDS011;63319;46.046;17.802;2024-03-17T17:43:27;34.27;;;16.10;;
74791;SDS011;63319;46.046;17.802;2024-03-17T17:46:29;26.98;;;11.50;;
74791;SDS011;63319;46.046;17.802;2024-03-17T17:49:31;24.27;;;11.65;;
74791;SDS011;63319;46.046;17.802;2024-03-17T17:52:33;47.13;;;21.45;;
74791;SDS011;63319;46.046;17.802;2024-03-17T17:55:35;37.10;;;15.77;;
74791;SDS011;63319;46.046;17.802;2024-03-17T17:58:37;24.70;;;11.02;;
74791;SDS011;63319;46.046;17.802;2024-03-17T18:01:42;21.65;;;10.77;;
74791;SDS011;63319;46.046;17.802;2024-03-17T18:04:44;16.70;;;8.60;;
74791;SDS011;63319;46.046;17.802;2024-03-17T18:07:46;9.88;;;3.78;;
74791;SDS011;63319;46.046;17.802;2024-03-17T18:10:51;10.65;;;4.32;;
74791;SDS011;63319;46.046;17.802;2024-03-17T18:13:53;12.40;;;4.97;;
74791;SDS011;63319;46.046;17.802;2024-03-17T18:16:55;13.90;;;6.50;;